Nearby METAR Reports

 

KORH - Worcester, Massachusetts, USA
Distance from station: NW 4mi, 7km
Updated: Sun, 23-Apr-2017 2:54pm EDT
Clear
Clear
 Wind from calm
Wind: Calm
Temperature: 63°F , 17°C
Dew Point: 30°F , -1°C
Humidity: 30%
Barometer: 30.04 inHg , 1017.3 hPa
Clouds: Clear
Visibility: 10 miles , 16 km
2017/04/23 18:54 KORH 231854Z 00000KT 10SM CLR 17/M01 A3004 RMK AO2 SLP174 T01671011
KBOS - Boston, Massachusetts, USA
Distance from station: ENE 42mi, 68km
Updated: Sun, 23-Apr-2017 2:54pm EDT
Few Clouds
Few Clouds
 Wind from ESE
Wind: ESE 16 mph , 26 km/h
Temperature: 54°F , 12°C
Dew Point: 37°F , 3°C
Humidity: 54%
Barometer: 30.05 inHg , 1017.6 hPa
Clouds: Few Clouds
Visibility: 10 miles , 16 km
Cloud details: Few Clouds 18000 ft
2017/04/23 18:54 KBOS 231854Z 11014KT 10SM FEW180 12/03 A3005 RMK AO2 SLP176 T01170033
 
KCQX - Chatham, Massachusetts, USA
Distance from station: SE 102mi, 164km
Updated: Sun, 23-Apr-2017 2:52pm EDT
Clear
Clear
 Wind from E
Wind: E 9 mph , 15 km/h
Temperature: 54°F , 12°C
Dew Point: 39°F , 4°C
Humidity: 58%
Barometer: 30.10 inHg , 1019.3 hPa
Clouds: Clear
Visibility: 10 miles , 16 km
2017/04/23 18:52 KCQX 231852Z AUTO 09008KT 10SM CLR 12/04 A3010 RMK AO2 SLP193 T01170039
KMVY - Marthas Vineyard, Massachusetts, USA
Distance from station: SE 84mi, 135km
Updated: Sun, 23-Apr-2017 3:22pm EDT
Clear
Clear
 Wind from NNE
Wind: NNE 12 mph , 19 km/h
Temperature: 54°F , 12°C
Dew Point: 39°F , 4°C
Humidity: 58%
Barometer: 30.09 inHg , 1019 hPa
Clouds: Clear
Visibility: 10 miles , 16 km
2017/04/23 19:22 KMVY 231922Z 03010KT 10SM CLR 12/04 A3009 RMK AO2 WSHFT 1902 T01170039
 
KPVC - Provincetown, Massachusetts, USA
Distance from station: NNW 85mi, 136km
Updated: Sun, 23-Apr-2017 2:56pm EDT
Clear
Clear
 Wind from NNE
Wind: NNE 8 mph , 13 km/h
Temperature: 52°F , 11°C
Dew Point: 39°F , 4°C
Humidity: 62%
Barometer: 30.09 inHg , 1019 hPa
Clouds: Clear
Visibility: 10 miles , 16 km
2017/04/23 18:56 KPVC 231856Z AUTO 03007KT 10SM CLR 11/04 A3009 RMK AO2 SLP189 T01110039
KAQW - Savoy, Massachusetts, USA
Distance from station: NNW 66mi, 106km
Updated: Sun, 23-Apr-2017 2:52pm EDT
Clear
Clear
 Wind from varies
Wind: varies 5 mph , 7 km/h
Temperature: 64°F , 18°C
Dew Point: 30°F , -1°C
Humidity: 28%
Barometer: 30.03 inHg , 1016.9 hPa
Clouds: Clear
Visibility: 10 miles , 16 km
2017/04/23 18:52 KAQW 231852Z AUTO VRB04KT 10SM CLR 18/M01 A3003 RMK AO2 SLP172 T01781006
 
KIZG - Fryeburg, Maine, USA
Distance from station: NNE 133mi, 214km
Updated: Sun, 23-Apr-2017 2:54pm EDT
Clear
Clear
 Wind from calm
Wind: Calm
Temperature: 66°F , 19°C
Dew Point: 34°F , 1°C
Humidity: 30%
Barometer: 29.99 inHg , 1015.6 hPa
Clouds: Clear
Visibility: 10 miles , 16 km
2017/04/23 18:54 KIZG 231854Z AUTO 00000KT 10SM CLR 19/01 A2999 RMK AO2 SLP158 T01890006
KMWN - Mt Washington, New Hampshire, USA
Distance from station: NNE 146mi, 234km
Updated: Sun, 23-Apr-2017 2:55pm EDT
Few Clouds
Few Clouds
 Wind from W
Wind: W 18 mph , 30 km/h
Temperature: 32°F , 0°C
Wind Chill: 21°F , -6°C
Dew Point: 23°F , -5°C
Humidity: 69%
Clouds: Few Clouds
Visibility: 120 miles , 192 km
Cloud details: Few Clouds 200 ft
Few Clouds 18000 ft
2017/04/23 18:55 KMWN 231855Z 27016KT 120SM FEW002 FEW180 00/M05 RMK
 
KBML - Berlin, New Hampshire, USA
Distance from station: NNE 160mi, 257km
Updated: Sun, 23-Apr-2017 2:52pm EDT
Clear
Clear
 Wind from calm
Wind: Calm
Temperature: 61°F , 16°C
Dew Point: 30°F , -1°C
Humidity: 31%
Barometer: 29.98 inHg , 1015.2 hPa
Clouds: Clear
Visibility: 10 miles , 16 km
2017/04/23 18:52 KBML 231852Z AUTO 00000KT 10SM CLR 16/M01 A2998 RMK AO2 SLP158 T01611006